Time;durP1;ratioP1;P1;durP2;ratioP2;P2;SDS_P1;SDS_P2;PMS_P1;PMS_P2;Temp;Humidity;BMP_temperature;BMP_pressure;BME280_temperature;BME280_humidity;BME280_pressure;Samples;Min_cycle;Max_cycle;Signal;HPM_P1;HPM_P2
2022/12/01 00:00:18;;;;;;;18.70;11.30;;;;;;;1.91;76.97;101515.46;100184;1282;107055;-71
2022/12/01 00:03:05;;;;;;;18.50;11.10;;;;;;;1.89;77.05;101517.30;101221;1289;139967;-70
2022/12/01 00:05:33;;;;;;;18.50;11.20;;;;;;;1.86;77.10;101510.03;101333;1296;108041;-70
2022/12/01 00:08:00;;;;;;;17.10;10.90;;;;;;;1.83;77.12;101519.23;101263;1293;139905;-70
2022/12/01 00:10:27;;;;;;;17.70;11.10;;;;;;;1.80;77.24;101522.07;100831;1291;111166;-70
2022/12/01 00:12:55;;;;;;;15.90;11.20;;;;;;;1.80;77.30;101524.82;100377;1285;107429;-70
2022/12/01 00:15:23;;;;;;;17.00;11.20;;;;;;;1.79;77.49;101528.39;99975;1284;98060;-72
2022/12/01 00:17:51;;;;;;;15.30;10.60;;;;;;;1.76;77.46;101531.77;100026;1290;108167;-71
2022/12/01 00:20:18;;;;;;;15.90;10.60;;;;;;;1.72;77.47;101531.32;100283;1282;138402;-71
2022/12/01 00:22:47;;;;;;;16.00;10.40;;;;;;;1.67;77.37;101526.23;100243;1290;109973;-70
2022/12/01 00:25:15;;;;;;;17.70;11.00;;;;;;;1.67;77.44;101532.73;100021;1290;138697;-71
2022/12/01 00:27:43;;;;;;;15.60;10.90;;;;;;;1.66;77.54;101533.56;100132;1289;96502;-70
2022/12/01 00:30:13;;;;;;;16.60;11.30;;;;;;;1.63;77.67;101527.33;100148;1290;107251;-71
2022/12/01 00:32:40;;;;;;;17.00;11.70;;;;;;;1.60;77.78;101527.40;100725;1283;136408;-71
2022/12/01 00:35:10;;;;;;;15.90;11.10;;;;;;;1.59;77.83;101526.88;100032;1283;110697;-70
2022/12/01 00:37:37;;;;;;;19.80;12.40;;;;;;;1.56;77.95;101524.73;100241;1283;137708;-71
2022/12/01 00:40:06;;;;;;;18.10;12.10;;;;;;;1.53;78.13;101526.73;100023;1283;96504;-71
2022/12/01 00:42:34;;;;;;;18.20;12.20;;;;;;;1.50;78.23;101518.77;100106;1299;106672;-71
2022/12/01 00:45:02;;;;;;;15.60;11.50;;;;;;;1.47;78.26;101522.48;100010;1290;139242;-70
2022/12/01 00:47:30;;;;;;;20.80;12.00;;;;;;;1.44;78.42;101519.83;100091;1292;110681;-70
2022/12/01 00:49:57;;;;;;;20.00;13.20;;;;;;;1.44;78.42;101518.30;99869;1290;138580;-71
2022/12/01 00:52:24;;;;;;;18.10;12.10;;;;;;;1.46;78.71;101517.65;99999;1287;98014;-71
2022/12/01 00:54:52;;;;;;;19.50;13.70;;;;;;;1.46;78.59;101516.46;100048;1291;110335;-70
2022/12/01 00:57:19;;;;;;;17.60;12.30;;;;;;;1.45;78.69;101509.58;99918;1285;137279;-71
2022/12/01 00:59:48;;;;;;;21.70;14.40;;;;;;;1.45;78.68;101510.94;100036;1283;109371;-70
2022/12/01 01:02:16;;;;;;;21.90;13.80;;;;;;;1.41;78.88;101507.23;100546;1290;137250;-70
2022/12/01 01:04:44;;;;;;;20.70;13.90;;;;;;;1.38;78.86;101506.46;100263;1284;96478;-71
2022/12/01 01:07:11;;;;;;;19.50;13.00;;;;;;;1.34;78.84;101503.11;99861;1283;138936;-70
2022/12/01 01:09:39;;;;;;;21.30;13.50;;;;;;;1.32;79.10;101507.17;99994;1290;96962;-70
2022/12/01 01:12:06;;;;;;;19.90;13.40;;;;;;;1.31;79.24;101502.52;99956;1290;111250;-70
2022/12/01 01:14:34;;;;;;;20.10;13.50;;;;;;;1.30;79.17;101500.61;99905;1284;140415;-71
2022/12/01 01:17:01;;;;;;;20.30;13.40;;;;;;;1.32;79.27;101496.71;100028;1289;96462;-71
2022/12/01 01:19:28;;;;;;;20.80;14.20;;;;;;;1.34;79.40;101496.27;99832;1290;138200;-70
2022/12/01 01:21:55;;;;;;;21.60;14.50;;;;;;;1.37;79.36;101496.51;100018;1285;96447;-70
2022/12/01 01:24:22;;;;;;;18.20;13.00;;;;;;;1.39;79.43;101492.77;100019;1289;109283;-71
2022/12/01 01:26:49;;;;;;;17.60;12.30;;;;;;;1.44;79.36;101497.02;99911;1287;138116;-70
2022/12/01 01:29:16;;;;;;;19.70;13.50;;;;;;;1.46;79.58;101494.52;99982;1283;96376;-70
2022/12/01 01:31:44;;;;;;;20.30;13.50;;;;;;;1.48;79.44;101491.47;99930;1290;137873;-70
2022/12/01 01:34:11;;;;;;;21.70;13.50;;;;;;;1.50;79.30;101489.63;99966;1287;96941;-70
2022/12/01 01:36:39;;;;;;;19.30;13.60;;;;;;;1.51;79.35;101493.08;100227;1290;110257;-70
2022/12/01 01:39:07;;;;;;;20.20;13.90;;;;;;;1.51;79.28;101494.98;99931;1283;137569;-70
2022/12/01 01:41:34;;;;;;;19.40;13.80;;;;;;;1.50;79.38;101492.71;100008;1283;96480;-69
2022/12/01 01:44:03;;;;;;;20.00;13.40;;;;;;;1.49;79.39;101496.30;99936;1290;138117;-71
2022/12/01 01:46:32;;;;;;;20.30;14.00;;;;;;;1.46;79.35;101499.48;100071;1283;96472;-70
2022/12/01 01:49:02;;;;;;;19.80;13.20;;;;;;;1.41;79.46;101499.68;100437;1291;109925;-70
2022/12/01 01:51:33;;;;;;;20.50;14.60;;;;;;;1.39;79.62;101499.64;100132;1287;107551;-70
2022/12/01 01:54:05;;;;;;;21.40;14.60;;;;;;;1.39;79.87;101496.04;98694;1284;1003798;-71
2022/12/01 01:56:35;;;;;;;22.30;15.60;;;;;;;1.41;79.89;101496.41;100044;1289;138386;-71
2022/12/01 01:59:03;;;;;;;23.60;15.00;;;;;;;1.40;79.86;101492.81;100222;1291;97219;-70
2022/12/01 02:01:31;;;;;;;20.10;14.10;;;;;;;1.37;79.84;101495.46;100037;1284;138683;-70
2022/12/01 02:04:00;;;;;;;19.20;14.20;;;;;;;1.32;79.90;101496.89;100298;1293;106544;-71
2022/12/01 02:06:27;;;;;;;23.20;15.30;;;;;;;1.30;79.90;101494.79;100124;1297;96414;-70
2022/12/01 02:08:55;;;;;;;24.00;16.20;;;;;;;1.28;80.01;101496.97;99894;1284;138115;-69
2022/12/01 02:12:02;;;;;;;21.20;14.50;;;;;;;1.26;80.07;101497.75;99993;1292;96459;-69
2022/12/01 02:14:45;;;;;;;21.10;15.50;;;;;;;1.22;80.18;101498.33;100964;1299;138028;-69
2022/12/01 02:17:27;;;;;;;21.40;14.30;;;;;;;1.20;80.27;101500.18;100047;1283;107936;-71
2022/12/01 02:20:20;;;;;;;23.10;15.10;;;;;;;1.21;80.40;101499.34;99936;1287;139217;-69
2022/12/01 02:23:03;;;;;;;24.00;15.10;;;;;;;1.19;80.36;101495.38;100006;1290;108053;-70
2022/12/01 02:25:45;;;;;;;23.20;15.90;;;;;;;1.18;80.48;101494.65;100465;1292;139492;-70
2022/12/01 02:28:35;;;;;;;21.90;15.50;;;;;;;1.17;80.49;101492.91;100546;1290;109650;-69
2022/12/01 02:31:08;;;;;;;24.20;16.20;;;;;;;1.16;80.71;101493.06;99855;1284;138496;-67
2022/12/01 02:33:44;;;;;;;21.60;14.40;;;;;;;1.15;80.78;101491.83;100026;1290;96521;-69
2022/12/01 02:36:17;;;;;;;23.10;15.60;;;;;;;1.13;80.72;101490.23;99959;1283;108363;-69
2022/12/01 02:38:52;;;;;;;21.40;15.10;;;;;;;1.12;80.77;101489.18;100031;1290;138110;-69
2022/12/01 02:41:28;;;;;;;24.20;16.00;;;;;;;1.10;81.00;101484.52;100442;1286;110430;-69
2022/12/01 02:44:03;;;;;;;23.10;14.80;;;;;;;1.09;81.09;101484.32;100073;1276;138745;-69
2022/12/01 02:46:34;;;;;;;21.00;15.40;;;;;;;1.07;81.10;101485.60;99967;1290;96349;-69
2022/12/01 02:49:08;;;;;;;21.70;15.00;;;;;;;1.06;81.23;101480.96;100026;1285;108144;-69
2022/12/01 02:51:37;;;;;;;21.80;15.00;;;;;;;1.07;81.36;101484.23;100562;1296;97153;-68
2022/12/01 02:54:07;;;;;;;22.60;15.20;;;;;;;1.07;81.38;101486.15;99940;1290;109485;-69
2022/12/01 02:56:34;;;;;;;21.50;15.00;;;;;;;1.08;81.40;101484.98;99983;1284;138310;-71
2022/12/01 02:59:02;;;;;;;21.10;14.70;;;;;;;1.09;81.48;101482.11;100032;1281;97805;-68
2022/12/01 03:01:41;;;;;;;20.60;14.00;;;;;;;1.09;81.48;101485.19;99997;1284;138448;-68
2022/12/01 03:04:28;;;;;;;21.30;15.10;;;;;;;1.10;81.62;101481.61;99838;1286;96474;-68
2022/12/01 03:06:58;;;;;;;;;;;;;;;1.14;81.69;101484.10;99873;1296;109787;-68
2022/12/01 03:09:38;;;;;;;22.00;15.20;;;;;;;1.19;81.76;101482.50;99742;1286;124421;-69
2022/12/01 03:12:15;;;;;;;20.30;14.70;;;;;;;1.23;81.83;101477.29;100532;1290;96812;-69
2022/12/01 03:14:51;;;;;;;22.20;15.10;;;;;;;1.26;81.69;101474.13;101004;1293;138660;-69
2022/12/01 03:17:25;;;;;;;23.00;15.30;;;;;;;1.29;81.54;101475.21;99975;1296;96521;-69
2022/12/01 03:19:58;;;;;;;20.70;15.20;;;;;;;1.31;81.52;101477.50;99591;1292;138039;-68
2022/12/01 03:22:31;;;;;;;21.10;15.30;;;;;;;1.32;81.55;101476.48;99990;1296;107112;-69
2022/12/01 03:25:03;;;;;;;21.70;15.70;;;;;;;1.29;81.47;101473.84;99782;1296;96458;-69
2022/12/01 03:27:35;;;;;;;23.20;15.40;;;;;;;1.27;81.49;101474.67;99665;1295;109833;-69
2022/12/01 03:30:09;;;;;;;19.80;14.80;;;;;;;1.27;81.56;101476.21;100461;1297;95046;-69
2022/12/01 03:32:45;;;;;;;21.20;14.50;;;;;;;1.27;81.45;101474.66;99703;1296;138329;-69
2022/12/01 03:35:17;;;;;;;22.60;15.20;;;;;;;1.27;81.62;101469.53;99810;1288;107661;-68
2022/12/01 03:37:49;;;;;;;22.70;15.40;;;;;;;1.28;81.50;101468.34;99697;1286;138089;-68
2022/12/01 03:40:23;;;;;;;24.80;16.70;;;;;;;1.29;81.54;101471.46;99754;1297;108091;-69
2022/12/01 03:42:55;;;;;;;22.70;16.20;;;;;;;1.26;81.31;101471.37;99677;1296;96677;-69
2022/12/01 03:45:28;;;;;;;28.60;16.10;;;;;;;1.19;81.48;101470.18;99566;1294;137140;-69
2022/12/01 03:47:55;;;;;;;24.60;16.10;;;;;;;1.14;81.47;101472.29;99737;1296;107216;-69
2022/12/01 03:50:26;;;;;;;22.50;15.20;;;;;;;1.11;81.42;101470.85;99627;1292;138422;-69
2022/12/01 03:53:05;;;;;;;21.30;15.10;;;;;;;1.13;81.63;101471.39;99743;1303;107760;-69
2022/12/01 03:55:37;;;;;;;20.60;14.80;;;;;;;1.15;81.73;101468.70;99678;1287;138535;-69
2022/12/01 03:58:09;;;;;;;20.10;14.90;;;;;;;1.17;81.81;101467.41;99736;1295;110096;-69
2022/12/01 04:00:38;;;;;;;21.30;15.30;;;;;;;1.20;81.77;101469.69;99650;1287;108640;-69
2022/12/01 04:03:06;;;;;;;23.60;15.80;;;;;;;1.23;81.71;101469.23;99650;1295;138325;-69
2022/12/01 04:05:35;;;;;;;22.70;15.80;;;;;;;1.25;81.67;101467.22;100134;1289;107224;-71
2022/12/01 04:08:02;;;;;;;22.80;15.10;;;;;;;1.26;81.56;101468.64;99622;1296;138049;-70
2022/12/01 04:10:31;;;;;;;23.50;17.10;;;;;;;1.27;81.51;101467.47;100416;1295;108600;-70
2022/12/01 04:12:59;;;;;;;21.30;15.70;;;;;;;1.28;81.49;101470.23;100393;1295;106732;-70
2022/12/01 04:15:27;;;;;;;23.30;16.00;;;;;;;1.28;81.58;101471.61;99616;1287;137495;-70
2022/12/01 04:17:55;;;;;;;22.90;16.10;;;;;;;1.29;81.67;101470.25;99698;1288;109508;-69
2022/12/01 04:20:23;;;;;;;24.40;17.00;;;;;;;1.29;81.68;101472.30;99575;1287;138285;-69
2022/12/01 04:22:50;;;;;;;25.50;17.50;;;;;;;1.29;81.58;101469.05;99744;1288;109459;-70
2022/12/01 04:25:18;;;;;;;21.90;16.30;;;;;;;1.27;81.61;101468.84;99707;1296;138888;-70
2022/12/01 04:27:45;;;;;;;25.50;17.40;;;;;;;1.26;81.50;101464.66;99935;1292;96763;-69
2022/12/01 04:30:13;;;;;;;24.30;16.80;;;;;;;1.25;81.58;101466.52;99741;1303;108079;-69
2022/12/01 04:32:43;;;;;;;26.60;17.20;;;;;;;1.23;81.58;101469.23;99648;1280;138125;-70
2022/12/01 04:35:12;;;;;;;24.20;17.70;;;;;;;1.22;81.63;101470.23;99884;1300;109544;-70
2022/12/01 04:37:40;;;;;;;24.50;17.40;;;;;;;1.22;81.71;101466.30;98173;1289;1003136;-69
2022/12/01 04:40:09;;;;;;;26.60;17.10;;;;;;;1.21;81.77;101470.56;99761;1294;96571;-70
2022/12/01 04:42:37;;;;;;;22.70;16.70;;;;;;;1.21;81.76;101471.24;100360;1295;107427;-70
2022/12/01 04:45:07;;;;;;;25.30;17.10;;;;;;;1.21;81.87;101474.17;99645;1288;138483;-70
2022/12/01 04:47:34;;;;;;;23.70;16.60;;;;;;;1.22;81.69;101471.27;100185;1295;109027;-70
2022/12/01 04:50:01;;;;;;;26.00;17.40;;;;;;;1.23;81.77;101472.48;99649;1296;138695;-69
2022/12/01 04:52:28;;;;;;;25.20;17.30;;;;;;;1.25;81.80;101474.42;100061;1295;97029;-70
2022/12/01 04:55:02;;;;;;;25.30;16.50;;;;;;;1.27;81.82;101471.89;99988;1298;108087;-70
2022/12/01 04:57:29;;;;;;;23.50;16.30;;;;;;;1.28;81.68;101480.17;99790;1297;96407;-70
2022/12/01 04:59:56;;;;;;;25.90;17.40;;;;;;;1.29;81.76;101483.80;100561;1296;109314;-68
2022/12/01 05:02:23;;;;;;;27.10;17.90;;;;;;;1.29;81.85;101482.07;99385;1289;1002578;-68
2022/12/01 05:04:51;;;;;;;23.70;17.00;;;;;;;1.30;81.64;101482.80;99745;1295;96933;-67
2022/12/01 05:07:18;;;;;;;24.90;17.60;;;;;;;1.31;81.71;101489.16;100493;1286;138227;-68
2022/12/01 05:09:46;;;;;;;25.60;17.20;;;;;;;1.30;81.68;101487.59;100061;1299;96589;-70
2022/12/01 05:12:15;;;;;;;23.70;17.00;;;;;;;1.30;81.66;101488.96;99884;1296;110130;-71
2022/12/01 05:14:43;;;;;;;24.70;17.50;;;;;;;1.31;81.74;101486.56;99795;1293;138094;-70
2022/12/01 05:17:10;;;;;;;26.70;18.80;;;;;;;1.31;81.58;101488.13;99812;1289;97223;-70
2022/12/01 05:22:22;;;;;;;23.90;17.60;;;;;;;1.33;81.65;101485.44;99699;1296;96888;-70
2022/12/01 05:25:11;;;;;;;26.70;18.70;;;;;;;1.33;81.67;101486.47;99716;1296;138202;-70
2022/12/01 05:27:38;;;;;;;27.60;18.10;;;;;;;1.32;81.52;101486.27;100153;1287;107589;-70
2022/12/01 05:30:07;;;;;;;27.90;19.00;;;;;;;1.31;81.53;101485.55;99117;1295;1003866;-70
2022/12/01 05:32:34;;;;;;;30.00;20.10;;;;;;;1.29;81.66;101483.63;100573;1285;138466;-70
2022/12/01 05:35:01;;;;;;;28.70;19.60;;;;;;;1.27;81.67;101484.77;100297;1295;96493;-69
2022/12/01 05:37:33;;;;;;;29.70;19.80;;;;;;;1.25;81.70;101487.44;99681;1296;138425;-69
2022/12/01 05:40:00;;;;;;;29.40;19.30;;;;;;;1.25;81.76;101488.11;99853;1296;110017;-70
2022/12/01 05:42:28;;;;;;;26.00;18.10;;;;;;;1.25;81.82;101485.89;99814;1295;96577;-70
2022/12/01 05:44:55;;;;;;;29.10;19.20;;;;;;;1.26;81.82;101486.28;99873;1289;138286;-71
2022/12/01 05:47:22;;;;;;;26.70;18.10;;;;;;;1.26;81.74;101483.20;100769;1285;96470;-70
2022/12/01 05:49:50;;;;;;;24.70;17.80;;;;;;;1.27;81.88;101485.81;100159;1294;138228;-70
2022/12/01 05:52:18;;;;;;;26.30;18.40;;;;;;;1.28;81.92;101486.17;100196;1289;108351;-70
2022/12/01 05:54:45;;;;;;;28.20;19.00;;;;;;;1.31;81.92;101486.08;100375;1296;95290;-70
2022/12/01 05:57:12;;;;;;;25.70;18.40;;;;;;;1.36;81.94;101485.67;99745;1294;138364;-70
2022/12/01 05:59:40;;;;;;;23.30;16.90;;;;;;;1.39;81.80;101487.46;99837;1296;96519;-70
2022/12/01 06:02:07;;;;;;;22.60;16.90;;;;;;;1.41;81.76;101491.62;99719;1295;137965;-70
2022/12/01 06:04:35;;;;;;;24.70;16.20;;;;;;;1.43;81.73;101488.58;100782;1287;107051;-72
2022/12/01 06:07:02;;;;;;;24.10;15.90;;;;;;;1.44;81.61;101488.98;99918;1287;96481;-70
2022/12/01 06:09:29;;;;;;;22.50;15.40;;;;;;;1.47;81.48;101487.34;99691;1288;138498;-70
2022/12/01 06:11:56;;;;;;;22.80;15.80;;;;;;;1.47;81.31;101487.86;99779;1294;96514;-71
2022/12/01 06:14:23;;;;;;;21.50;14.90;;;;;;;1.48;81.25;101491.13;99643;1294;138085;-71
2022/12/01 06:16:51;;;;;;;24.90;16.00;;;;;;;1.50;81.18;101491.19;99591;1297;106586;-71
2022/12/01 06:19:18;;;;;;;23.30;14.90;;;;;;;1.52;81.29;101487.96;99551;1296;138346;-70
2022/12/01 06:21:45;;;;;;;21.20;14.80;;;;;;;1.54;81.27;101489.04;99838;1288;108031;-70
2022/12/01 06:24:13;;;;;;;22.00;15.50;;;;;;;1.57;81.18;101490.46;100024;1295;96602;-71
2022/12/01 06:26:40;;;;;;;21.00;14.60;;;;;;;1.59;80.97;101490.19;99897;1286;138313;-71
2022/12/01 06:29:09;;;;;;;21.80;15.20;;;;;;;1.62;80.93;101487.17;99858;1287;107432;-70
2022/12/01 06:31:37;;;;;;;23.20;16.30;;;;;;;1.64;81.01;101482.94;100309;1293;137615;-74
2022/12/01 06:34:04;;;;;;;21.00;15.30;;;;;;;1.65;80.98;101485.91;99739;1293;106851;-73
2022/12/01 06:36:31;;;;;;;22.70;16.20;;;;;;;1.67;81.18;101483.71;99911;1294;96484;-73
2022/12/01 06:38:59;;;;;;;23.40;16.90;;;;;;;1.69;80.97;101479.65;99714;1286;137468;-72
2022/12/01 06:41:26;;;;;;;24.40;16.40;;;;;;;1.70;81.06;101482.57;99793;1294;107750;-75
2022/12/01 06:43:53;;;;;;;23.00;15.70;;;;;;;1.71;80.98;101479.17;99706;1286;138157;-72
2022/12/01 06:46:20;;;;;;;22.70;15.80;;;;;;;1.72;80.63;101480.39;99781;1290;107937;-73
2022/12/01 06:48:50;;;;;;;22.40;15.60;;;;;;;1.74;80.50;101479.73;99829;1293;96498;-71
2022/12/01 06:51:17;;;;;;;20.40;15.10;;;;;;;1.75;80.51;101480.30;99728;1296;138230;-71
2022/12/01 06:53:45;;;;;;;22.10;15.90;;;;;;;1.79;80.65;101478.50;100633;1302;107934;-72
2022/12/01 06:56:12;;;;;;;20.80;15.40;;;;;;;1.79;80.29;101478.17;99797;1294;137643;-70
2022/12/01 06:58:40;;;;;;;22.60;16.40;;;;;;;1.79;80.21;101480.03;99776;1294;109328;-71
2022/12/01 07:01:12;;;;;;;22.10;15.70;;;;;;;1.79;80.32;101475.39;99857;1294;96487;-71
2022/12/01 07:03:39;;;;;;;22.50;16.30;;;;;;;1.79;80.26;101484.65;99903;1296;109250;-69
2022/12/01 07:06:07;;;;;;;23.50;16.10;;;;;;;1.75;80.16;101484.73;99870;1293;108259;-71
2022/12/01 07:08:35;;;;;;;21.10;15.80;;;;;;;1.71;80.15;101484.48;100134;1295;138977;-72
2022/12/01 07:11:04;;;;;;;21.40;15.80;;;;;;;1.69;80.27;101487.35;99756;1294;109121;-70
2022/12/01 07:13:31;;;;;;;21.30;15.10;;;;;;;1.66;80.16;101488.14;99869;1291;138817;-71
2022/12/01 07:16:00;;;;;;;23.90;15.90;;;;;;;1.61;80.10;101484.92;99822;1286;111499;-72
2022/12/01 07:18:27;;;;;;;24.20;15.90;;;;;;;1.58;80.11;101484.84;99768;1294;110479;-69
2022/12/01 07:20:58;;;;;;;23.20;15.60;;;;;;;1.54;80.11;101487.31;100037;1294;138232;-69
2022/12/01 07:23:26;;;;;;;20.40;14.10;;;;;;;1.49;80.18;101488.06;99871;1293;108443;-72
2022/12/01 07:26:01;;;;;;;20.30;14.50;;;;;;;1.47;80.42;101487.67;99714;1292;139550;-70
2022/12/01 07:28:28;;;;;;;20.20;14.20;;;;;;;1.47;80.52;101489.05;101191;1293;110091;-70
2022/12/01 07:31:00;;;;;;;20.10;13.50;;;;;;;1.48;80.64;101487.20;101168;1287;108132;-69
2022/12/01 07:33:27;;;;;;;17.10;12.90;;;;;;;1.53;80.62;101490.39;101126;1287;138396;-70
2022/12/01 07:35:56;;;;;;;24.40;15.10;;;;;;;1.56;80.59;101491.48;101117;1294;108972;-69
2022/12/01 07:38:23;;;;;;;19.70;14.80;;;;;;;1.59;80.64;101493.59;100600;1294;137783;-69
2022/12/01 07:40:50;;;;;;;23.30;15.60;;;;;;;1.60;80.42;101491.22;99912;1294;109551;-69
2022/12/01 07:43:17;;;;;;;25.70;17.30;;;;;;;1.61;80.45;101492.81;99718;1286;137763;-68
2022/12/01 07:45:45;;;;;;;23.30;15.60;;;;;;;1.60;80.52;101490.73;99880;1296;97182;-69
2022/12/01 07:48:12;;;;;;;24.40;16.00;;;;;;;1.60;80.56;101486.61;99930;1287;106840;-71
2022/12/01 07:50:40;;;;;;;20.10;13.80;;;;;;;1.60;80.71;101494.15;99627;1293;138289;-70
2022/12/01 07:53:07;;;;;;;24.40;16.60;;;;;;;1.61;80.71;101496.05;99797;1294;111231;-73
2022/12/01 07:55:35;;;;;;;23.70;16.50;;;;;;;1.62;80.64;101494.20;99715;1292;139484;-69
2022/12/01 07:58:03;;;;;;;25.00;17.10;;;;;;;1.61;80.63;101493.84;99769;1293;96383;-68
2022/12/01 08:00:30;;;;;;;23.50;17.20;;;;;;;1.61;80.70;101495.90;99701;1288;108250;-68
2022/12/01 08:02:58;;;;;;;24.70;16.90;;;;;;;1.63;80.71;101493.73;101120;1294;138663;-71
2022/12/01 08:05:25;;;;;;;28.00;17.20;;;;;;;1.64;80.72;101493.23;100123;1294;108969;-68
2022/12/01 08:07:55;;;;;;;22.50;15.60;;;;;;;1.65;80.63;101491.88;99671;1287;139516;-68
2022/12/01 08:10:22;;;;;;;27.10;16.10;;;;;;;1.66;80.67;101490.90;100890;1294;97262;-69
2022/12/01 08:12:49;;;;;;;24.70;16.00;;;;;;;1.69;80.63;101484.27;99374;1291;108211;-68
2022/12/01 08:15:17;;;;;;;26.10;17.20;;;;;;;1.71;80.65;101487.91;99379;1294;138249;-68
2022/12/01 08:17:44;;;;;;;24.50;16.30;;;;;;;1.74;80.69;101485.07;100238;1296;108926;-69
2022/12/01 08:20:14;;;;;;;26.50;17.10;;;;;;;1.80;80.69;101482.64;96759;1293;1015333;-68
2022/12/01 08:22:48;;;;;;;26.10;17.40;;;;;;;1.85;80.65;101482.93;100141;1299;96487;-69
2022/12/01 08:25:15;;;;;;;24.50;16.70;;;;;;;1.91;80.56;101487.84;100105;1287;138036;-67
2022/12/01 08:27:43;;;;;;;24.70;17.60;;;;;;;1.95;80.45;101487.07;99840;1287;96520;-68
2022/12/01 08:30:12;;;;;;;25.20;18.20;;;;;;;1.96;80.18;101487.63;99818;1290;108524;-68
2022/12/01 08:32:40;;;;;;;26.10;17.70;;;;;;;1.96;80.06;101490.38;99689;1293;137486;-68
2022/12/01 08:35:09;;;;;;;26.40;17.60;;;;;;;1.96;80.10;101486.77;99872;1293;96946;-69
2022/12/01 08:37:36;;;;;;;28.20;18.40;;;;;;;1.96;79.80;101491.55;99944;1294;139183;-69
2022/12/01 08:40:15;;;;;;;25.30;17.50;;;;;;;1.95;79.85;101494.27;99915;1293;97159;-68
2022/12/01 08:42:42;;;;;;;24.90;17.50;;;;;;;1.92;79.66;101492.69;100304;1296;109373;-69
2022/12/01 08:45:11;;;;;;;26.00;17.00;;;;;;;1.91;79.60;101497.45;99698;1294;138674;-68
2022/12/01 08:47:38;;;;;;;27.90;17.10;;;;;;;1.89;79.45;101497.06;100014;1293;97022;-69
2022/12/01 08:50:07;;;;;;;25.80;17.80;;;;;;;1.88;79.57;101495.50;100827;1301;139609;-68
2022/12/01 08:52:35;;;;;;;24.70;17.50;;;;;;;1.88;79.64;101497.72;100006;1286;96491;-69
2022/12/01 08:55:02;;;;;;;26.30;19.10;;;;;;;1.88;79.45;101496.70;100804;1301;110060;-69
2022/12/01 08:57:31;;;;;;;27.40;18.60;;;;;;;1.84;79.28;101502.62;101006;1301;139006;-68
2022/12/01 08:59:59;;;;;;;25.10;18.10;;;;;;;1.79;79.11;101505.43;101146;1293;94939;-69
2022/12/01 09:02:26;;;;;;;25.60;18.30;;;;;;;1.75;79.13;101510.11;100957;1292;138076;-67
2022/12/01 09:04:54;;;;;;;29.50;18.70;;;;;;;1.74;79.27;101511.64;101119;1302;95724;-69
2022/12/01 09:07:21;;;;;;;27.20;18.10;;;;;;;1.74;79.22;101510.62;100286;1294;1002543;-69
2022/12/01 09:09:52;;;;;;;24.60;16.90;;;;;;;1.75;79.14;101504.63;101108;1300;106766;-69
2022/12/01 09:12:20;;;;;;;25.20;15.90;;;;;;;1.74;79.27;101502.55;100804;1293;94758;-69
2022/12/01 09:14:48;;;;;;;25.50;16.90;;;;;;;1.75;79.27;101504.12;100520;1293;138116;-69
2022/12/01 09:17:17;;;;;;;24.10;16.90;;;;;;;1.76;79.27;101508.42;99923;1301;96475;-69
2022/12/01 09:19:44;;;;;;;23.70;17.40;;;;;;;1.77;79.38;101502.95;99665;1294;138222;-69
2022/12/01 09:22:13;;;;;;;25.50;17.60;;;;;;;1.78;79.24;101505.73;99435;1294;107710;-69
2022/12/01 09:24:40;;;;;;;27.00;17.40;;;;;;;1.79;79.34;101503.20;99685;1286;96514;-69
2022/12/01 09:27:09;;;;;;;23.80;17.10;;;;;;;1.79;79.18;101499.56;99665;1290;138013;-69
2022/12/01 09:29:38;;;;;;;27.40;16.90;;;;;;;1.78;79.27;101499.73;99771;1289;96480;-70
2022/12/01 09:32:05;;;;;;;24.20;17.10;;;;;;;1.79;79.35;101495.82;99648;1293;137892;-70
2022/12/01 09:34:32;;;;;;;24.80;16.10;;;;;;;1.80;79.37;101494.31;100240;1294;107636;-70
2022/12/01 09:37:00;;;;;;;27.60;16.40;;;;;;;1.81;79.30;101492.45;99818;1294;96931;-69
2022/12/01 09:39:28;;;;;;;25.20;16.50;;;;;;;1.83;79.39;101494.37;99749;1285;137847;-70
2022/12/01 09:42:01;;;;;;;26.90;16.90;;;;;;;1.83;79.21;101491.63;100270;1294;96455;-70
2022/12/01 09:44:42;;;;;;;27.60;18.00;;;;;;;1.83;79.25;101494.20;100082;1293;138375;-68
2022/12/01 09:47:18;;;;;;;26.40;18.10;;;;;;;1.81;79.31;101493.33;99176;1297;1003524;-69
2022/12/01 09:49:54;;;;;;;30.90;19.40;;;;;;;1.80;79.25;101491.92;100078;1296;139020;-68
2022/12/01 09:52:23;;;;;;;30.20;19.30;;;;;;;1.80;79.37;101490.04;100117;1291;105735;-69
2022/12/01 09:54:50;;;;;;;32.10;18.80;;;;;;;1.79;79.40;101488.44;99787;1293;96567;-68
2022/12/01 09:57:25;;;;;;;27.40;18.20;;;;;;;1.79;79.42;101491.70;100285;1294;138241;-68
2022/12/01 09:59:54;;;;;;;28.10;17.80;;;;;;;1.81;79.52;101487.48;99926;1291;109411;-68
2022/12/01 10:02:37;;;;;;;28.10;17.70;;;;;;;1.84;79.63;101485.48;99813;1301;138157;-68
2022/12/01 10:05:13;;;;;;;31.80;18.20;;;;;;;1.87;79.62;101483.30;100231;1296;107672;-68
2022/12/01 10:07:44;;;;;;;27.60;18.10;;;;;;;1.90;79.68;101483.19;100435;1294;138451;-67
2022/12/01 10:10:16;;;;;;;27.40;18.10;;;;;;;1.94;79.57;101480.36;100210;1294;110344;-68
2022/12/01 10:12:46;;;;;;;30.50;19.70;;;;;;;1.95;79.56;101480.40;100428;1302;109245;-68
2022/12/01 10:15:27;;;;;;;30.30;18.90;;;;;;;1.97;79.56;101477.88;100667;1300;137815;-68
2022/12/01 10:18:05;;;;;;;31.90;20.50;;;;;;;1.99;79.45;101479.81;100106;1293;107580;-69
2022/12/01 10:20:40;;;;;;;30.50;20.70;;;;;;;1.98;79.30;101479.62;99861;1294;137602;-69
2022/12/01 10:23:23;;;;;;;34.00;21.80;;;;;;;1.96;79.50;101477.14;100022;1288;110058;-68
2022/12/01 10:25:57;;;;;;;35.30;21.50;;;;;;;1.94;79.38;101472.98;100200;1293;138732;-69
2022/12/01 10:29:08;;;;;;;34.50;21.50;;;;;;;1.91;79.39;101474.66;100021;1293;96982;-71
2022/12/01 10:31:42;;;;;;;35.50;21.70;;;;;;;1.91;79.63;101472.24;99380;1298;139634;-71
2022/12/01 10:34:14;;;;;;;32.60;20.60;;;;;;;1.92;79.67;101466.93;99924;1302;96505;-71
2022/12/01 10:36:42;;;;;;;33.60;20.40;;;;;;;1.94;79.81;101462.37;100190;1301;110354;-72
2022/12/01 10:39:18;;;;;;;34.00;21.70;;;;;;;1.97;79.82;101460.39;99324;1299;138019;-71
2022/12/01 10:41:47;;;;;;;36.10;21.20;;;;;;;1.98;79.77;101458.36;99643;1300;96557;-71
2022/12/01 10:44:17;;;;;;;30.20;20.00;;;;;;;1.99;79.75;101456.31;99339;1297;137603;-71
2022/12/01 10:46:48;;;;;;;35.80;21.70;;;;;;;1.98;79.65;101456.29;99518;1298;96617;-71
2022/12/01 10:49:17;;;;;;;33.50;21.30;;;;;;;1.96;79.76;101454.52;99337;1290;137553;-71
2022/12/01 10:51:56;;;;;;;34.30;20.90;;;;;;;1.92;79.92;101448.27;100705;1296;107442;-73
2022/12/01 10:54:31;;;;;;;36.00;21.80;;;;;;;1.90;79.85;101447.17;100804;1300;94675;-72
2022/12/01 10:56:59;;;;;;;37.30;21.40;;;;;;;1.88;79.97;101441.14;100162;1299;138544;-72
2022/12/01 10:59:34;;;;;;;36.00;22.40;;;;;;;1.87;80.00;101448.84;99307;1296;97263;-72
2022/12/01 11:02:05;;;;;;;41.60;23.90;;;;;;;1.86;79.90;101445.55;99797;1299;138003;-72
2022/12/01 11:04:43;;;;;;;38.80;22.80;;;;;;;1.83;79.79;101439.15;99158;1300;107396;-73
2022/12/01 11:07:19;;;;;;;36.60;22.00;;;;;;;1.80;79.73;101437.89;101017;1299;94655;-73
2022/12/01 11:09:48;;;;;;;36.70;22.00;;;;;;;1.76;79.80;101438.13;100962;1302;107725;-73
2022/12/01 11:12:19;;;;;;;38.20;22.40;;;;;;;1.74;79.73;101435.68;99627;1294;96542;-72
2022/12/01 11:14:50;;;;;;;43.20;25.00;;;;;;;1.74;79.74;101434.66;100881;1293;138056;-72
2022/12/01 11:17:25;;;;;;;43.30;24.60;;;;;;;1.73;79.71;101431.72;100711;1301;109372;-72
2022/12/01 11:19:53;;;;;;;41.60;24.50;;;;;;;1.73;79.70;101427.60;100610;1296;139343;-72
2022/12/01 11:22:24;;;;;;;39.70;22.90;;;;;;;1.73;79.54;101432.91;100980;1287;106986;-72